createdAt,value
2017-11-27T00:00:57.521Z,7.30
2017-11-27T00:03:24.983Z,7.50
2017-11-27T00:05:52.432Z,7.20
2017-11-27T00:08:19.934Z,7.00
2017-11-27T00:10:47.369Z,7.70
2017-11-27T00:13:14.815Z,7.70
2017-11-27T00:15:42.248Z,7.90
2017-11-27T00:18:09.723Z,7.80
2017-11-27T00:20:37.175Z,8.20
2017-11-27T00:23:04.641Z,8.30
2017-11-27T00:25:32.113Z,8.00
2017-11-27T00:27:59.553Z,7.80
2017-11-27T00:30:26.974Z,7.70
2017-11-27T00:32:55.214Z,7.40
2017-11-27T00:35:22.692Z,7.30
2017-11-27T00:37:50.130Z,7.50
2017-11-27T00:40:17.576Z,7.60
2017-11-27T00:42:45.022Z,7.50
2017-11-27T00:45:12.497Z,7.50
2017-11-27T00:47:39.938Z,7.60
2017-11-27T00:50:07.389Z,7.80
2017-11-27T00:52:35.807Z,7.40
2017-11-27T00:55:03.286Z,7.50
2017-11-27T00:57:31.477Z,7.50
2017-11-27T00:59:59.725Z,7.50
2017-11-27T01:02:27.167Z,7.50
2017-11-27T01:04:54.623Z,7.70
2017-11-27T01:07:22.068Z,7.20
2017-11-27T01:09:49.486Z,7.40
2017-11-27T01:12:16.916Z,7.70
2017-11-27T01:14:44.379Z,8.10
2017-11-27T01:17:11.836Z,8.10
2017-11-27T01:19:39.287Z,8.10
2017-11-27T01:22:06.739Z,7.70
2017-11-27T01:24:35.113Z,7.60
2017-11-27T01:27:02.571Z,7.40
2017-11-27T01:29:30.038Z,6.90
2017-11-27T01:31:57.478Z,7.00
2017-11-27T01:34:24.941Z,7.20
2017-11-27T01:36:52.404Z,7.40
2017-11-27T01:39:19.883Z,7.60
2017-11-27T01:41:47.342Z,7.70
2017-11-27T01:44:15.547Z,7.50
2017-11-27T01:46:42.996Z,7.50
2017-11-27T01:49:11.187Z,8.10
2017-11-27T01:51:38.639Z,8.10
2017-11-27T01:54:06.099Z,8.10
2017-11-27T01:56:33.534Z,7.90
2017-11-27T01:59:00.994Z,8.10
2017-11-27T02:01:28.476Z,7.90
2017-11-27T02:03:55.902Z,8.00
2017-11-27T02:06:24.160Z,7.50
2017-11-27T02:08:51.586Z,7.50
2017-11-27T02:11:19.024Z,7.80
2017-11-27T02:13:46.466Z,7.80
2017-11-27T02:16:13.932Z,7.70
2017-11-27T02:18:41.392Z,8.00
2017-11-27T02:21:08.810Z,7.50
2017-11-27T02:23:37.046Z,7.80
2017-11-27T02:26:04.498Z,7.80
2017-11-27T02:28:31.963Z,7.30
2017-11-27T02:30:59.423Z,7.40
2017-11-27T02:33:26.865Z,7.80
2017-11-27T02:35:54.349Z,7.20
2017-11-27T02:38:21.798Z,7.40
2017-11-27T02:40:49.238Z,7.70
2017-11-27T02:43:16.719Z,7.50
2017-11-27T02:45:44.146Z,7.90
2017-11-27T02:48:11.627Z,8.30
2017-11-27T02:50:39.081Z,8.40
2017-11-27T02:53:06.523Z,8.50
2017-11-27T02:55:33.996Z,8.60
2017-11-27T02:58:01.446Z,8.40
2017-11-27T03:00:28.914Z,8.70
2017-11-27T03:02:56.351Z,8.60
2017-11-27T03:05:23.815Z,8.30
2017-11-27T03:07:51.287Z,8.30
2017-11-27T03:10:18.734Z,8.30
2017-11-27T03:12:46.192Z,7.60
2017-11-27T03:15:13.646Z,7.60
2017-11-27T03:17:41.087Z,7.60
2017-11-27T03:20:08.554Z,7.60
2017-11-27T03:22:36.014Z,7.40
2017-11-27T03:25:03.470Z,7.80
2017-11-27T03:27:31.182Z,7.80
2017-11-27T03:29:58.623Z,7.40
2017-11-27T03:32:26.098Z,7.40
2017-11-27T03:34:53.555Z,7.60
2017-11-27T03:37:20.999Z,8.10
2017-11-27T03:39:48.463Z,7.90
2017-11-27T03:42:15.919Z,7.50
2017-11-27T03:44:43.400Z,7.50
2017-11-27T03:47:10.834Z,7.60
2017-11-27T03:49:38.296Z,7.80
2017-11-27T03:52:05.777Z,7.70
2017-11-27T03:54:33.222Z,7.90
2017-11-27T03:57:00.690Z,7.90
2017-11-27T03:59:28.922Z,8.20
2017-11-27T04:01:56.386Z,8.20
2017-11-27T04:04:23.863Z,8.30
2017-11-27T04:06:51.315Z,8.20
2017-11-27T04:09:18.786Z,8.30
2017-11-27T04:11:46.242Z,8.30
2017-11-27T04:14:13.707Z,8.10
2017-11-27T04:16:41.166Z,7.80
2017-11-27T04:19:09.365Z,8.00
2017-11-27T04:21:36.826Z,8.00
2017-11-27T04:24:04.283Z,8.10
2017-11-27T04:26:32.530Z,7.90
2017-11-27T04:29:00.736Z,7.70
2017-11-27T04:31:28.182Z,7.60
2017-11-27T04:33:56.376Z,7.80
2017-11-27T04:36:23.818Z,7.80
2017-11-27T04:38:51.292Z,7.50
2017-11-27T04:41:18.732Z,7.40
2017-11-27T04:43:46.212Z,7.30
2017-11-27T04:46:13.670Z,7.00
2017-11-27T04:48:41.855Z,7.20
2017-11-27T04:51:10.097Z,7.40
2017-11-27T04:53:38.310Z,7.30
2017-11-27T04:56:05.775Z,7.20
2017-11-27T04:58:33.258Z,7.50
2017-11-27T05:01:00.702Z,7.50
2017-11-27T05:03:28.115Z,7.70
2017-11-27T05:05:55.641Z,7.50
2017-11-27T05:08:23.058Z,7.10
2017-11-27T05:10:50.506Z,7.50
2017-11-27T05:13:17.954Z,7.50
2017-11-27T05:15:45.423Z,7.40
2017-11-27T05:18:12.872Z,7.50
2017-11-27T05:20:40.355Z,7.60
2017-11-27T05:23:07.791Z,7.60
2017-11-27T05:25:35.364Z,7.80
2017-11-27T05:28:02.814Z,8.00
2017-11-27T05:30:30.273Z,7.90
2017-11-27T05:32:57.761Z,7.70
2017-11-27T05:35:25.203Z,7.90
2017-11-27T05:37:52.662Z,7.80
2017-11-27T05:40:20.110Z,7.50
2017-11-27T05:42:47.567Z,7.30
2017-11-27T05:45:15.029Z,7.60
2017-11-27T05:47:42.476Z,7.70
2017-11-27T05:50:09.943Z,7.80
2017-11-27T05:52:38.145Z,7.60
2017-11-27T05:55:05.582Z,7.60
2017-11-27T05:57:33.031Z,7.80
2017-11-27T06:00:00.512Z,7.70
2017-11-27T06:02:27.974Z,7.90
2017-11-27T06:04:55.420Z,7.90
2017-11-27T06:07:22.882Z,7.80
2017-11-27T06:09:50.338Z,8.10
2017-11-27T06:12:18.793Z,8.20
2017-11-27T06:14:46.252Z,8.00
2017-11-27T06:17:13.967Z,8.00
2017-11-27T06:19:41.428Z,8.10
2017-11-27T06:22:08.874Z,8.10
2017-11-27T06:24:36.342Z,8.00
2017-11-27T06:27:03.804Z,8.40
2017-11-27T06:29:31.260Z,8.50
2017-11-27T06:31:58.730Z,8.90
2017-11-27T06:34:26.164Z,8.50
2017-11-27T06:36:54.407Z,8.00
2017-11-27T06:39:21.814Z,8.00
2017-11-27T06:41:49.300Z,8.00
2017-11-27T06:44:17.363Z,7.90
2017-11-27T06:46:44.802Z,7.90
2017-11-27T06:49:13.005Z,8.00
2017-11-27T06:51:40.434Z,8.00
2017-11-27T06:54:08.731Z,8.20
2017-11-27T06:56:36.166Z,8.20
2017-11-27T06:59:04.359Z,8.10
2017-11-27T07:01:31.811Z,8.10
2017-11-27T07:03:59.261Z,8.00
2017-11-27T07:06:27.451Z,7.80
2017-11-27T07:08:54.923Z,7.80
2017-11-27T07:11:22.350Z,8.20
2017-11-27T07:13:50.555Z,7.90
2017-11-27T07:16:18.010Z,7.90
2017-11-27T07:18:45.454Z,8.00
2017-11-27T07:21:12.900Z,7.60
2017-11-27T07:23:40.388Z,7.40
2017-11-27T07:26:07.853Z,7.50
2017-11-27T07:28:36.446Z,7.30
2017-11-27T07:31:03.911Z,7.30
2017-11-27T07:33:31.357Z,7.70
2017-11-27T07:35:58.838Z,7.90
2017-11-27T07:38:31.836Z,8.00
2017-11-27T07:41:00.072Z,7.50
2017-11-27T07:43:27.530Z,7.50
2017-11-27T07:45:55.031Z,7.40
2017-11-27T07:48:22.474Z,7.50
2017-11-27T07:50:50.658Z,7.50
2017-11-27T07:53:18.119Z,7.50
2017-11-27T07:55:45.566Z,7.60
2017-11-27T07:58:13.025Z,7.20
2017-11-27T08:00:41.219Z,7.00
2017-11-27T08:03:08.859Z,6.90
2017-11-27T08:05:36.331Z,6.80
2017-11-27T08:08:03.795Z,6.80
2017-11-27T08:10:31.252Z,6.80
2017-11-27T08:12:59.285Z,7.20
2017-11-27T08:15:26.742Z,6.90
2017-11-27T08:17:54.221Z,7.10
2017-11-27T08:20:21.675Z,6.90
2017-11-27T08:22:49.134Z,6.80
2017-11-27T08:25:16.580Z,6.80
2017-11-27T08:27:44.039Z,6.90
2017-11-27T08:30:11.499Z,7.00
2017-11-27T08:32:38.962Z,7.20
2017-11-27T08:35:06.417Z,6.90
2017-11-27T08:37:33.874Z,7.10
2017-11-27T08:40:01.385Z,7.10
2017-11-27T08:42:29.589Z,7.10
2017-11-27T08:44:57.010Z,7.10
2017-11-27T08:47:24.455Z,7.20
2017-11-27T08:49:52.669Z,7.10
2017-11-27T08:52:20.120Z,7.10
2017-11-27T08:54:47.614Z,7.10
2017-11-27T08:57:15.033Z,7.20
2017-11-27T08:59:42.483Z,7.10
2017-11-27T09:02:09.922Z,7.30
2017-11-27T09:04:37.395Z,7.20
2017-11-27T09:07:05.584Z,7.10
2017-11-27T09:09:33.037Z,7.10
2017-11-27T09:12:00.474Z,7.20
2017-11-27T09:14:27.929Z,7.50
2017-11-27T09:16:56.129Z,7.30
2017-11-27T09:19:23.570Z,7.30
2017-11-27T09:21:51.037Z,7.70
2017-11-27T09:24:18.507Z,7.50
2017-11-27T09:26:45.959Z,7.30
2017-11-27T09:29:13.426Z,7.20
2017-11-27T09:31:41.104Z,7.50
2017-11-27T09:34:08.550Z,7.70
2017-11-27T09:36:35.995Z,7.70
2017-11-27T09:39:03.446Z,7.50
2017-11-27T09:41:30.918Z,7.90
2017-11-27T09:43:58.371Z,8.30
2017-11-27T09:46:25.830Z,7.80
2017-11-27T09:48:53.277Z,7.90
2017-11-27T09:51:20.717Z,7.60
2017-11-27T09:53:48.920Z,7.60
2017-11-27T09:56:16.405Z,7.60
2017-11-27T09:58:43.854Z,7.50
2017-11-27T10:01:11.318Z,7.60
2017-11-27T10:03:38.768Z,7.60
2017-11-27T10:06:06.252Z,7.70
2017-11-27T10:08:33.703Z,7.70
2017-11-27T10:11:01.163Z,7.50
2017-11-27T10:13:28.580Z,7.80
2017-11-27T10:15:56.285Z,7.90
2017-11-27T10:18:23.748Z,8.00
2017-11-27T10:20:51.216Z,7.90
2017-11-27T10:23:18.667Z,7.90
2017-11-27T10:25:46.102Z,8.00
2017-11-27T10:28:14.374Z,8.40
2017-11-27T10:30:41.856Z,8.10
2017-11-27T10:33:09.322Z,8.10
2017-11-27T10:35:36.787Z,8.30
2017-11-27T10:38:04.224Z,7.90
2017-11-27T10:40:31.683Z,7.90
2017-11-27T10:42:59.139Z,8.20
2017-11-27T10:45:26.603Z,8.20
2017-11-27T10:47:54.075Z,8.10
2017-11-27T10:50:21.535Z,8.00
2017-11-27T10:52:48.983Z,8.00
2017-11-27T10:55:16.430Z,7.90
2017-11-27T10:57:43.897Z,7.90
2017-11-27T11:00:11.371Z,7.90
2017-11-27T11:02:39.546Z,8.10
2017-11-27T11:05:07.785Z,8.10
2017-11-27T11:07:36.115Z,8.20
2017-11-27T11:10:03.559Z,8.50
2017-11-27T11:12:31.805Z,8.50
2017-11-27T11:14:59.298Z,8.50
2017-11-27T11:17:27.486Z,8.10
2017-11-27T11:19:54.914Z,8.10
2017-11-27T11:22:23.105Z,8.30
2017-11-27T11:24:50.550Z,8.30
2017-11-27T11:27:18.804Z,8.10
2017-11-27T11:29:47.280Z,8.10
2017-11-27T11:32:14.824Z,7.70
2017-11-27T11:34:42.250Z,7.90
2017-11-27T11:37:09.707Z,7.50
2017-11-27T11:39:37.162Z,7.60
2017-11-27T11:42:05.355Z,8.00
2017-11-27T11:44:32.782Z,8.00
2017-11-27T11:47:00.990Z,8.10
2017-11-27T11:49:28.437Z,8.10
2017-11-27T11:51:55.870Z,8.20
2017-11-27T11:54:24.066Z,8.10
2017-11-27T11:56:51.537Z,8.10
2017-11-27T11:59:18.996Z,8.00
2017-11-27T12:01:46.426Z,8.30
2017-11-27T12:04:13.888Z,8.40
2017-11-27T12:06:41.365Z,8.00
2017-11-27T12:09:08.822Z,8.40
2017-11-27T12:11:36.262Z,8.20
2017-11-27T12:14:03.686Z,8.50
2017-11-27T12:16:31.886Z,8.20
2017-11-27T12:18:59.331Z,8.20
2017-11-27T12:21:27.526Z,8.60
2017-11-27T12:23:59.778Z,8.60
2017-11-27T12:26:27.974Z,8.40
2017-11-27T12:28:55.410Z,8.40
2017-11-27T12:31:23.620Z,8.60
2017-11-27T12:33:51.051Z,8.60
2017-11-27T12:36:19.255Z,8.80
2017-11-27T12:38:46.684Z,8.80
2017-11-27T12:41:14.895Z,8.40
2017-11-27T12:43:42.359Z,8.40
2017-11-27T12:46:09.850Z,8.40
2017-11-27T12:48:37.308Z,8.50
2017-11-27T12:51:04.801Z,8.40
2017-11-27T12:53:32.638Z,8.80
2017-11-27T12:56:02.164Z,8.70
2017-11-27T12:58:30.355Z,8.60
2017-11-27T13:00:57.815Z,8.60
2017-11-27T13:03:25.295Z,8.60
2017-11-27T13:05:52.750Z,8.70
2017-11-27T13:08:20.211Z,8.80
2017-11-27T13:10:48.688Z,8.70
2017-11-27T13:13:16.175Z,9.00
2017-11-27T13:15:44.299Z,9.00
2017-11-27T13:18:11.770Z,9.10
2017-11-27T13:20:39.247Z,9.00
2017-11-27T13:23:07.285Z,8.90
2017-11-27T13:25:34.782Z,9.00
2017-11-27T13:28:02.239Z,8.90
2017-11-27T13:30:29.700Z,8.90
2017-11-27T13:32:57.159Z,8.80
2017-11-27T13:35:25.509Z,8.90
2017-11-27T13:40:31.186Z,8.90
2017-11-27T13:46:24.012Z,8.80
2017-11-27T13:48:52.243Z,8.90
2017-11-27T13:51:19.716Z,8.90
2017-11-27T13:53:47.147Z,9.20
2017-11-27T13:56:14.611Z,9.00
2017-11-27T13:58:42.054Z,8.90
2017-11-27T14:01:09.532Z,9.10
2017-11-27T14:03:36.979Z,9.00
2017-11-27T14:06:04.407Z,9.00
2017-11-27T14:08:33.075Z,9.20
2017-11-27T14:11:00.508Z,9.10
2017-11-27T14:13:27.992Z,8.90
2017-11-27T14:15:55.603Z,8.90
2017-11-27T14:18:23.030Z,9.10
2017-11-27T14:20:50.467Z,9.00
2017-11-27T14:23:17.909Z,8.90
2017-11-27T14:25:46.108Z,9.00
2017-11-27T14:28:14.335Z,9.10
2017-11-27T14:30:42.679Z,9.10
2017-11-27T14:33:10.118Z,9.10
2017-11-27T14:35:38.308Z,9.30
2017-11-27T14:38:05.754Z,9.30
2017-11-27T14:40:33.989Z,9.30
2017-11-27T14:43:01.449Z,9.30
2017-11-27T14:45:28.907Z,9.10
2017-11-27T14:47:56.368Z,9.50
2017-11-27T14:50:23.875Z,9.50
2017-11-27T14:52:52.071Z,9.90
2017-11-27T14:55:19.486Z,9.90
2017-11-27T14:57:47.691Z,9.60
2017-11-27T15:00:15.130Z,9.60
2017-11-27T15:02:43.346Z,9.30
2017-11-27T15:05:10.835Z,9.30
2017-11-27T15:07:38.294Z,9.30
2017-11-27T15:10:05.753Z,9.40
2017-11-27T15:12:33.181Z,9.40
2017-11-27T15:15:00.610Z,9.70
2017-11-27T15:17:28.060Z,9.40
2017-11-27T15:19:55.506Z,9.50
2017-11-27T15:22:22.971Z,9.70
2017-11-27T15:24:50.427Z,9.70
2017-11-27T15:27:17.910Z,9.60
2017-11-27T15:29:45.351Z,9.60
2017-11-27T15:32:12.810Z,9.80
2017-11-27T15:34:40.264Z,9.60
2017-11-27T15:37:07.726Z,9.40
2017-11-27T15:39:35.202Z,9.60
2017-11-27T15:42:02.620Z,9.70
2017-11-27T15:44:30.824Z,9.50
2017-11-27T15:46:58.283Z,9.50
2017-11-27T15:49:25.744Z,9.70
2017-11-27T15:51:53.203Z,9.90
2017-11-27T15:54:20.671Z,9.60
2017-11-27T15:56:48.125Z,9.60
2017-11-27T15:59:15.573Z,9.60
2017-11-27T16:01:43.036Z,9.50
2017-11-27T16:04:10.527Z,9.50
2017-11-27T16:06:37.964Z,9.60
2017-11-27T16:09:05.410Z,9.70
2017-11-27T16:11:32.866Z,9.90
2017-11-27T16:14:00.328Z,10.00
2017-11-27T16:16:27.767Z,9.80
2017-11-27T16:18:55.263Z,9.70
2017-11-27T16:21:22.717Z,9.60
2017-11-27T16:23:50.192Z,9.60
2017-11-27T16:26:17.658Z,9.70
2017-11-27T16:28:45.100Z,9.60
2017-11-27T16:31:12.566Z,9.70
2017-11-27T16:33:40.032Z,9.30
2017-11-27T16:36:07.471Z,9.90
2017-11-27T16:38:34.927Z,9.90
2017-11-27T16:41:02.391Z,9.70
2017-11-27T16:43:31.372Z,9.70
2017-11-27T16:45:58.834Z,9.70
2017-11-27T16:48:26.262Z,9.80
2017-11-27T16:50:53.728Z,9.90
2017-11-27T16:53:21.195Z,10.10
2017-11-27T16:55:48.649Z,10.30
2017-11-27T16:58:16.116Z,10.20
2017-11-27T17:00:43.538Z,9.80
2017-11-27T17:03:10.994Z,9.70
2017-11-27T17:05:38.454Z,10.10
2017-11-27T17:08:05.908Z,10.20
2017-11-27T17:10:34.126Z,10.00
2017-11-27T17:13:02.343Z,10.10
2017-11-27T17:15:30.558Z,10.20
2017-11-27T17:17:57.989Z,10.20
2017-11-27T17:20:25.430Z,10.40
2017-11-27T17:22:53.652Z,10.70
2017-11-27T17:25:21.087Z,10.70
2017-11-27T17:27:48.543Z,10.50
2017-11-27T17:30:16.727Z,10.10
2017-11-27T17:32:44.157Z,10.10
2017-11-27T17:35:12.390Z,10.00
2017-11-27T17:37:39.818Z,10.00
2017-11-27T17:40:07.255Z,9.70
2017-11-27T17:42:34.715Z,10.10
2017-11-27T17:45:02.200Z,10.20
2017-11-27T17:47:29.619Z,10.10
2017-11-27T17:49:57.846Z,10.50
2017-11-27T17:52:25.312Z,10.50
2017-11-27T17:54:52.773Z,10.00
2017-11-27T17:57:20.254Z,10.00
2017-11-27T17:59:47.711Z,10.30
2017-11-27T18:02:15.173Z,10.40
2017-11-27T18:04:42.631Z,10.10
2017-11-27T18:07:10.840Z,10.20
2017-11-27T18:09:38.295Z,10.10
2017-11-27T18:12:05.717Z,10.30
2017-11-27T18:14:33.189Z,10.10
2017-11-27T18:17:00.666Z,10.60
2017-11-27T18:19:28.149Z,10.70
2017-11-27T18:21:55.579Z,10.60
2017-11-27T18:24:23.054Z,10.30
2017-11-27T18:26:50.530Z,10.40
2017-11-27T18:29:17.968Z,10.90
2017-11-27T18:31:45.415Z,10.60
2017-11-27T18:34:12.930Z,10.50
2017-11-27T18:36:40.382Z,10.80
2017-11-27T18:39:07.858Z,10.80
2017-11-27T18:41:35.286Z,10.70
2017-11-27T18:44:02.763Z,10.70
2017-11-27T18:46:30.229Z,10.90
2017-11-27T18:49:00.346Z,10.80
2017-11-27T18:51:28.610Z,10.30
2017-11-27T18:53:56.061Z,10.30
2017-11-27T18:56:23.546Z,10.50
2017-11-27T18:58:51.751Z,10.50
2017-11-27T19:01:19.242Z,10.50
2017-11-27T19:03:46.695Z,10.00
2017-11-27T19:06:14.172Z,10.20
2017-11-27T19:08:41.674Z,10.60
2017-11-27T19:11:09.164Z,10.70
2017-11-27T19:13:37.645Z,10.60
2017-11-27T19:16:05.095Z,10.50
2017-11-27T19:18:32.560Z,10.60
2017-11-27T19:21:00.029Z,10.80
2017-11-27T19:23:27.475Z,10.90
2017-11-27T19:25:55.005Z,10.60
2017-11-27T19:28:22.466Z,10.70
2017-11-27T19:30:50.686Z,10.70
2017-11-27T19:33:18.161Z,10.70
2017-11-27T19:35:46.345Z,10.40
2017-11-27T19:38:13.818Z,10.40
2017-11-27T19:40:41.250Z,10.50
2017-11-27T19:43:09.520Z,10.30
2017-11-27T19:45:36.984Z,10.20
2017-11-27T19:48:04.459Z,9.50
2017-11-27T19:50:31.934Z,9.80
2017-11-27T19:53:00.186Z,9.90
2017-11-27T19:55:27.705Z,9.90
2017-11-27T19:57:55.112Z,10.30
2017-11-27T20:00:23.348Z,10.70
2017-11-27T20:02:50.808Z,10.70
2017-11-27T20:05:18.270Z,10.70
2017-11-27T20:07:45.752Z,10.60
2017-11-27T20:10:13.223Z,11.00
2017-11-27T20:12:40.677Z,10.90
2017-11-27T20:15:08.147Z,10.80
2017-11-27T20:17:37.281Z,10.80
2017-11-27T20:20:04.794Z,10.80
2017-11-27T20:22:35.843Z,10.60
2017-11-27T20:25:04.058Z,10.80
2017-11-27T20:27:31.530Z,10.80
2017-11-27T20:29:59.025Z,10.70
2017-11-27T20:32:27.273Z,10.40
2017-11-27T20:34:54.758Z,10.30
2017-11-27T20:37:22.221Z,10.40
2017-11-27T20:39:49.677Z,10.90
2017-11-27T20:42:17.123Z,11.00
2017-11-27T20:44:44.568Z,11.10
2017-11-27T20:47:12.008Z,11.30
2017-11-27T20:49:39.479Z,11.10
2017-11-27T20:52:06.922Z,10.80
2017-11-27T20:54:34.388Z,10.70
2017-11-27T20:57:01.823Z,10.80
2017-11-27T20:59:29.239Z,10.80
2017-11-27T21:01:57.478Z,10.30
2017-11-27T21:04:24.937Z,10.30
2017-11-27T21:06:52.377Z,10.80
2017-11-27T21:09:19.802Z,10.60
2017-11-27T21:11:47.233Z,11.00
2017-11-27T21:14:14.783Z,11.20
2017-11-27T21:16:42.210Z,11.50
2017-11-27T21:19:09.672Z,11.40
2017-11-27T21:21:37.149Z,11.40
2017-11-27T21:24:04.624Z,11.40
2017-11-27T21:26:32.075Z,11.60
2017-11-27T21:28:59.537Z,11.60
2017-11-27T21:31:27.718Z,11.20
2017-11-27T21:33:55.963Z,11.20
2017-11-27T21:36:23.448Z,11.20
2017-11-27T21:38:50.903Z,10.60
2017-11-27T21:41:18.352Z,10.60
2017-11-27T21:43:45.803Z,10.90
2017-11-27T21:46:13.295Z,11.20
2017-11-27T21:48:41.520Z,10.70
2017-11-27T21:51:08.977Z,10.60
2017-11-27T21:53:37.961Z,10.00
2017-11-27T21:56:05.425Z,10.00
2017-11-27T21:58:32.874Z,10.00
2017-11-27T22:01:00.389Z,9.60
2017-11-27T22:03:28.600Z,9.30
2017-11-27T22:05:56.808Z,9.70
2017-11-27T22:08:24.256Z,9.70
2017-11-27T22:10:51.689Z,9.70
2017-11-27T22:13:19.155Z,9.50
2017-11-27T22:15:46.603Z,9.20
2017-11-27T22:18:14.079Z,9.30
2017-11-27T22:20:41.530Z,9.20
2017-11-27T22:23:08.998Z,9.30
2017-11-27T22:25:37.387Z,9.70
2017-11-27T22:28:04.851Z,9.60
2017-11-27T22:30:32.309Z,9.50
2017-11-27T22:32:59.755Z,9.00
2017-11-27T22:35:27.230Z,9.50
2017-11-27T22:37:54.663Z,9.80
2017-11-27T22:40:22.143Z,9.60
2017-11-27T22:42:49.578Z,9.90
2017-11-27T22:45:17.043Z,10.10
2017-11-27T22:47:44.499Z,9.90
2017-11-27T22:50:11.958Z,10.20
2017-11-27T22:52:39.428Z,10.20
2017-11-27T22:55:06.871Z,10.50
2017-11-27T22:57:34.340Z,10.10
2017-11-27T23:00:01.789Z,10.00
2017-11-27T23:02:29.243Z,9.20
2017-11-27T23:04:56.719Z,9.60
2017-11-27T23:07:24.162Z,9.50
2017-11-27T23:09:52.379Z,9.00
2017-11-27T23:12:19.913Z,9.00
2017-11-27T23:14:47.369Z,9.20
2017-11-27T23:17:14.847Z,8.60
2017-11-27T23:19:42.286Z,9.00
2017-11-27T23:22:09.750Z,9.00
2017-11-27T23:24:37.426Z,8.60
2017-11-27T23:27:04.872Z,9.00
2017-11-27T23:29:32.302Z,9.50
2017-11-27T23:31:59.787Z,9.30
2017-11-27T23:34:27.277Z,9.20
2017-11-27T23:36:54.705Z,9.00
2017-11-27T23:39:22.165Z,8.80
2017-11-27T23:41:49.638Z,8.80
2017-11-27T23:44:17.882Z,8.40
2017-11-27T23:46:45.339Z,8.30
2017-11-27T23:49:12.822Z,8.40
2017-11-27T23:51:41.022Z,9.30
2017-11-27T23:54:08.479Z,9.30
2017-11-27T23:56:37.581Z,9.40
2017-11-27T23:59:05.015Z,9.40
